sensor_id;sensor_type;location;lat;lon;timestamp;temperature;humidity
7143;DHT22;3613;48.902;9.204;2023-11-18T00:01:32;4.60;99.90
7143;DHT22;3613;48.902;9.204;2023-11-18T00:04:01;4.60;99.90
7143;DHT22;3613;48.902;9.204;2023-11-18T00:06:27;4.60;99.90
7143;DHT22;3613;48.902;9.204;2023-11-18T00:08:53;4.50;99.90
7143;DHT22;3613;48.902;9.204;2023-11-18T00:11:19;4.40;99.90
7143;DHT22;3613;48.902;9.204;2023-11-18T00:13:45;4.40;99.90
7143;DHT22;3613;48.902;9.204;2023-11-18T00:16:11;4.30;99.90
7143;DHT22;3613;48.902;9.204;2023-11-18T00:18:41;4.20;99.90
7143;DHT22;3613;48.902;9.204;2023-11-18T00:21:09;4.20;99.90
7143;DHT22;3613;48.902;9.204;2023-11-18T00:23:37;4.10;99.90
7143;DHT22;3613;48.902;9.204;2023-11-18T00:26:03;4.00;99.90
7143;DHT22;3613;48.902;9.204;2023-11-18T00:28:32;3.90;99.90
7143;DHT22;3613;48.902;9.204;2023-11-18T00:31:00;3.90;99.90
7143;DHT22;3613;48.902;9.204;2023-11-18T00:33:29;3.80;99.90
7143;DHT22;3613;48.902;9.204;2023-11-18T00:35:55;3.80;99.90
7143;DHT22;3613;48.902;9.204;2023-11-18T00:38:20;3.80;99.90
7143;DHT22;3613;48.902;9.204;2023-11-18T00:40:48;3.70;99.90
7143;DHT22;3613;48.902;9.204;2023-11-18T00:43:14;3.70;99.90
7143;DHT22;3613;48.902;9.204;2023-11-18T00:45:40;3.70;99.90
7143;DHT22;3613;48.902;9.204;2023-11-18T00:48:11;3.80;99.90
7143;DHT22;3613;48.902;9.204;2023-11-18T00:50:36;3.80;99.90
7143;DHT22;3613;48.902;9.204;2023-11-18T00:53:04;3.80;99.90
7143;DHT22;3613;48.902;9.204;2023-11-18T00:55:30;3.80;99.90
7143;DHT22;3613;48.902;9.204;2023-11-18T00:57:59;3.90;99.90
7143;DHT22;3613;48.902;9.204;2023-11-18T01:00:27;3.90;99.90
7143;DHT22;3613;48.902;9.204;2023-11-18T01:02:55;3.90;99.90
7143;DHT22;3613;48.902;9.204;2023-11-18T01:05:22;4.00;99.90
7143;DHT22;3613;48.902;9.204;2023-11-18T01:07:50;4.00;99.90
7143;DHT22;3613;48.902;9.204;2023-11-18T01:10:18;4.00;99.90
7143;DHT22;3613;48.902;9.204;2023-11-18T01:12:44;4.00;99.90
7143;DHT22;3613;48.902;9.204;2023-11-18T01:15:11;4.10;99.90
7143;DHT22;3613;48.902;9.204;2023-11-18T01:17:38;4.20;99.90
7143;DHT22;3613;48.902;9.204;2023-11-18T01:20:04;4.20;99.90
7143;DHT22;3613;48.902;9.204;2023-11-18T01:22:35;4.30;99.90
7143;DHT22;3613;48.902;9.204;2023-11-18T01:25:01;4.30;99.90
7143;DHT22;3613;48.902;9.204;2023-11-18T01:27:27;4.30;99.90
7143;DHT22;3613;48.902;9.204;2023-11-18T01:29:53;4.30;99.90
7143;DHT22;3613;48.902;9.204;2023-11-18T01:32:21;4.40;99.90
7143;DHT22;3613;48.902;9.204;2023-11-18T01:34:49;4.40;99.90
7143;DHT22;3613;48.902;9.204;2023-11-18T01:37:18;4.50;99.90
7143;DHT22;3613;48.902;9.204;2023-11-18T01:39:47;4.50;99.90
7143;DHT22;3613;48.902;9.204;2023-11-18T01:42:12;4.50;99.90
7143;DHT22;3613;48.902;9.204;2023-11-18T01:44:38;4.60;99.90
7143;DHT22;3613;48.902;9.204;2023-11-18T01:47:04;4.60;99.90
7143;DHT22;3613;48.902;9.204;2023-11-18T01:49:37;4.70;99.90
7143;DHT22;3613;48.902;9.204;2023-11-18T01:52:05;4.80;99.90
7143;DHT22;3613;48.902;9.204;2023-11-18T01:54:34;4.80;99.90
7143;DHT22;3613;48.902;9.204;2023-11-18T01:57:03;4.90;99.90
7143;DHT22;3613;48.902;9.204;2023-11-18T01:59:32;5.00;99.90
7143;DHT22;3613;48.902;9.204;2023-11-18T02:01:59;5.00;99.90
7143;DHT22;3613;48.902;9.204;2023-11-18T02:04:25;5.00;99.90
7143;DHT22;3613;48.902;9.204;2023-11-18T02:06:53;4.90;99.90
7143;DHT22;3613;48.902;9.204;2023-11-18T02:09:20;4.90;99.90
7143;DHT22;3613;48.902;9.204;2023-11-18T02:14:26;4.90;99.90
7143;DHT22;3613;48.902;9.204;2023-11-18T02:16:56;5.10;99.90
7143;DHT22;3613;48.902;9.204;2023-11-18T02:19:24;5.20;99.90
7143;DHT22;3613;48.902;9.204;2023-11-18T02:21:52;5.10;99.90
7143;DHT22;3613;48.902;9.204;2023-11-18T02:24:32;5.10;99.90
7143;DHT22;3613;48.902;9.204;2023-11-18T02:27:02;5.20;99.90
7143;DHT22;3613;48.902;9.204;2023-11-18T02:29:44;5.20;99.90
7143;DHT22;3613;48.902;9.204;2023-11-18T02:32:31;5.20;99.90
7143;DHT22;3613;48.902;9.204;2023-11-18T02:35:15;5.20;99.90
7143;DHT22;3613;48.902;9.204;2023-11-18T02:37:47;5.20;99.90
7143;DHT22;3613;48.902;9.204;2023-11-18T02:40:19;5.30;99.90
7143;DHT22;3613;48.902;9.204;2023-11-18T02:42:45;5.40;99.90
7143;DHT22;3613;48.902;9.204;2023-11-18T02:45:13;5.30;99.90
7143;DHT22;3613;48.902;9.204;2023-11-18T02:47:45;5.40;99.90
7143;DHT22;3613;48.902;9.204;2023-11-18T02:50:11;5.10;99.90
7143;DHT22;3613;48.902;9.204;2023-11-18T02:52:37;5.00;99.90
7143;DHT22;3613;48.902;9.204;2023-11-18T02:55:05;4.90;99.90
7143;DHT22;3613;48.902;9.204;2023-11-18T02:57:33;4.80;99.90
7143;DHT22;3613;48.902;9.204;2023-11-18T02:59:59;4.90;99.90
7143;DHT22;3613;48.902;9.204;2023-11-18T03:02:29;5.00;99.90
7143;DHT22;3613;48.902;9.204;2023-11-18T03:05:00;5.00;99.90
7143;DHT22;3613;48.902;9.204;2023-11-18T03:07:31;5.10;99.90
7143;DHT22;3613;48.902;9.204;2023-11-18T03:09:56;5.10;99.90
7143;DHT22;3613;48.902;9.204;2023-11-18T03:12:22;5.20;99.90
7143;DHT22;3613;48.902;9.204;2023-11-18T03:14:48;5.30;99.90
7143;DHT22;3613;48.902;9.204;2023-11-18T03:17:13;5.20;99.90
7143;DHT22;3613;48.902;9.204;2023-11-18T03:19:39;5.30;99.90
7143;DHT22;3613;48.902;9.204;2023-11-18T03:22:09;5.60;99.90
7143;DHT22;3613;48.902;9.204;2023-11-18T03:24:34;5.30;99.90
7143;DHT22;3613;48.902;9.204;2023-11-18T03:27:00;5.30;99.90
7143;DHT22;3613;48.902;9.204;2023-11-18T03:29:26;5.20;99.90
7143;DHT22;3613;48.902;9.204;2023-11-18T03:31:51;5.10;99.90
7143;DHT22;3613;48.902;9.204;2023-11-18T03:34:18;5.10;99.90
7143;DHT22;3613;48.902;9.204;2023-11-18T03:36:48;5.10;99.90
7143;DHT22;3613;48.902;9.204;2023-11-18T03:39:14;5.10;99.90
7143;DHT22;3613;48.902;9.204;2023-11-18T03:41:45;5.00;99.90
7143;DHT22;3613;48.902;9.204;2023-11-18T03:44:14;5.00;99.90
7143;DHT22;3613;48.902;9.204;2023-11-18T03:46:46;4.90;99.90
7143;DHT22;3613;48.902;9.204;2023-11-18T03:49:12;4.70;99.90
7143;DHT22;3613;48.902;9.204;2023-11-18T03:51:40;4.70;99.90
7143;DHT22;3613;48.902;9.204;2023-11-18T03:54:08;4.60;99.90
7143;DHT22;3613;48.902;9.204;2023-11-18T03:56:34;4.60;99.90
7143;DHT22;3613;48.902;9.204;2023-11-18T03:59:00;4.60;99.90
7143;DHT22;3613;48.902;9.204;2023-11-18T04:01:28;4.70;99.90
7143;DHT22;3613;48.902;9.204;2023-11-18T04:03:54;4.70;99.90
7143;DHT22;3613;48.902;9.204;2023-11-18T04:06:25;4.90;99.90
7143;DHT22;3613;48.902;9.204;2023-11-18T04:08:53;5.00;99.90
7143;DHT22;3613;48.902;9.204;2023-11-18T04:11:21;5.00;99.90
7143;DHT22;3613;48.902;9.204;2023-11-18T04:13:46;5.10;99.90
7143;DHT22;3613;48.902;9.204;2023-11-18T04:16:16;5.20;99.90
7143;DHT22;3613;48.902;9.204;2023-11-18T04:18:45;5.20;99.90
7143;DHT22;3613;48.902;9.204;2023-11-18T04:21:13;5.20;99.90
7143;DHT22;3613;48.902;9.204;2023-11-18T04:23:40;5.30;99.90
7143;DHT22;3613;48.902;9.204;2023-11-18T04:26:07;5.30;99.90
7143;DHT22;3613;48.902;9.204;2023-11-18T04:28:36;5.30;99.90
7143;DHT22;3613;48.902;9.204;2023-11-18T04:31:02;5.40;99.90
7143;DHT22;3613;48.902;9.204;2023-11-18T04:33:35;5.40;99.90
7143;DHT22;3613;48.902;9.204;2023-11-18T04:36:06;5.40;99.90
7143;DHT22;3613;48.902;9.204;2023-11-18T04:38:35;5.40;99.90
7143;DHT22;3613;48.902;9.204;2023-11-18T04:41:01;5.40;99.90
7143;DHT22;3613;48.902;9.204;2023-11-18T04:43:29;5.30;99.90
7143;DHT22;3613;48.902;9.204;2023-11-18T04:45:55;5.20;99.90
7143;DHT22;3613;48.902;9.204;2023-11-18T04:48:23;5.00;99.90
7143;DHT22;3613;48.902;9.204;2023-11-18T04:50:51;4.90;99.90
7143;DHT22;3613;48.902;9.204;2023-11-18T04:53:17;4.80;99.90
7143;DHT22;3613;48.902;9.204;2023-11-18T04:55:47;4.70;99.90
7143;DHT22;3613;48.902;9.204;2023-11-18T04:58:15;4.60;99.90
7143;DHT22;3613;48.902;9.204;2023-11-18T05:00:41;4.50;99.90
7143;DHT22;3613;48.902;9.204;2023-11-18T05:03:09;4.40;99.90
7143;DHT22;3613;48.902;9.204;2023-11-18T05:05:39;4.40;99.90
7143;DHT22;3613;48.902;9.204;2023-11-18T05:08:06;4.40;99.90
7143;DHT22;3613;48.902;9.204;2023-11-18T05:10:35;4.40;99.90
7143;DHT22;3613;48.902;9.204;2023-11-18T05:13:02;4.30;99.90
7143;DHT22;3613;48.902;9.204;2023-11-18T05:15:27;4.30;99.90
7143;DHT22;3613;48.902;9.204;2023-11-18T05:17:54;4.20;99.90
7143;DHT22;3613;48.902;9.204;2023-11-18T05:20:25;4.20;99.90
7143;DHT22;3613;48.902;9.204;2023-11-18T05:22:53;4.10;99.90
7143;DHT22;3613;48.902;9.204;2023-11-18T05:25:20;4.00;99.90
7143;DHT22;3613;48.902;9.204;2023-11-18T05:27:46;4.00;99.90
7143;DHT22;3613;48.902;9.204;2023-11-18T05:30:12;4.00;99.90
7143;DHT22;3613;48.902;9.204;2023-11-18T05:32:38;4.00;99.90
7143;DHT22;3613;48.902;9.204;2023-11-18T05:35:04;4.00;99.90
7143;DHT22;3613;48.902;9.204;2023-11-18T05:37:30;4.10;99.90
7143;DHT22;3613;48.902;9.204;2023-11-18T05:40:01;4.00;99.90
7143;DHT22;3613;48.902;9.204;2023-11-18T05:42:35;4.00;99.90
7143;DHT22;3613;48.902;9.204;2023-11-18T05:45:04;4.00;99.90
7143;DHT22;3613;48.902;9.204;2023-11-18T05:47:32;3.90;99.90
7143;DHT22;3613;48.902;9.204;2023-11-18T05:50:02;3.90;99.90
7143;DHT22;3613;48.902;9.204;2023-11-18T05:52:30;3.90;99.90
7143;DHT22;3613;48.902;9.204;2023-11-18T05:54:58;3.90;99.90
7143;DHT22;3613;48.902;9.204;2023-11-18T05:57:26;3.90;99.90
7143;DHT22;3613;48.902;9.204;2023-11-18T05:59:52;3.80;99.90
7143;DHT22;3613;48.902;9.204;2023-11-18T06:02:24;3.70;99.90
7143;DHT22;3613;48.902;9.204;2023-11-18T06:04:50;3.70;99.90
7143;DHT22;3613;48.902;9.204;2023-11-18T06:07:16;3.60;99.90
7143;DHT22;3613;48.902;9.204;2023-11-18T06:09:44;3.50;99.90
7143;DHT22;3613;48.902;9.204;2023-11-18T06:12:12;4.10;99.90
7143;DHT22;3613;48.902;9.204;2023-11-18T06:14:38;3.60;99.90
7143;DHT22;3613;48.902;9.204;2023-11-18T06:17:04;4.90;99.90
7143;DHT22;3613;48.902;9.204;2023-11-18T06:19:36;3.50;99.90
7143;DHT22;3613;48.902;9.204;2023-11-18T06:22:02;3.60;99.90
7143;DHT22;3613;48.902;9.204;2023-11-18T06:24:28;3.50;99.90
7143;DHT22;3613;48.902;9.204;2023-11-18T06:26:53;3.50;99.90
7143;DHT22;3613;48.902;9.204;2023-11-18T06:29:20;3.50;99.90
7143;DHT22;3613;48.902;9.204;2023-11-18T06:31:45;3.50;99.90
7143;DHT22;3613;48.902;9.204;2023-11-18T06:34:11;3.50;99.90
7143;DHT22;3613;48.902;9.204;2023-11-18T06:36:40;3.70;99.90
7143;DHT22;3613;48.902;9.204;2023-11-18T06:39:06;3.80;99.90
7143;DHT22;3613;48.902;9.204;2023-11-18T06:41:32;3.90;99.90
7143;DHT22;3613;48.902;9.204;2023-11-18T06:44:05;4.00;99.90
7143;DHT22;3613;48.902;9.204;2023-11-18T06:46:40;4.00;99.90
7143;DHT22;3613;48.902;9.204;2023-11-18T06:49:10;4.10;99.90
7143;DHT22;3613;48.902;9.204;2023-11-18T06:51:41;4.30;99.90
7143;DHT22;3613;48.902;9.204;2023-11-18T06:54:10;4.20;99.90
7143;DHT22;3613;48.902;9.204;2023-11-18T06:56:36;4.70;99.90
7143;DHT22;3613;48.902;9.204;2023-11-18T06:59:08;4.00;99.90
7143;DHT22;3613;48.902;9.204;2023-11-18T07:01:38;4.00;99.90
7143;DHT22;3613;48.902;9.204;2023-11-18T07:04:08;4.00;99.90
7143;DHT22;3613;48.902;9.204;2023-11-18T07:06:35;4.00;99.90
7143;DHT22;3613;48.902;9.204;2023-11-18T07:09:08;4.10;99.90
7143;DHT22;3613;48.902;9.204;2023-11-18T07:11:39;4.20;99.90
7143;DHT22;3613;48.902;9.204;2023-11-18T07:14:06;4.30;99.90
7143;DHT22;3613;48.902;9.204;2023-11-18T07:16:34;4.30;99.90
7143;DHT22;3613;48.902;9.204;2023-11-18T07:19:00;4.40;99.90
7143;DHT22;3613;48.902;9.204;2023-11-18T07:21:28;4.50;99.90
7143;DHT22;3613;48.902;9.204;2023-11-18T07:23:53;4.50;99.90
7143;DHT22;3613;48.902;9.204;2023-11-18T07:26:19;4.50;99.90
7143;DHT22;3613;48.902;9.204;2023-11-18T07:28:47;4.70;99.90
7143;DHT22;3613;48.902;9.204;2023-11-18T07:31:12;4.80;99.90
7143;DHT22;3613;48.902;9.204;2023-11-18T07:33:38;4.90;99.90
7143;DHT22;3613;48.902;9.204;2023-11-18T07:36:04;4.90;99.90
7143;DHT22;3613;48.902;9.204;2023-11-18T07:38:31;5.00;99.90
7143;DHT22;3613;48.902;9.204;2023-11-18T07:40:58;5.10;99.90
7143;DHT22;3613;48.902;9.204;2023-11-18T07:43:25;5.10;99.90
7143;DHT22;3613;48.902;9.204;2023-11-18T07:45:52;5.20;99.90
7143;DHT22;3613;48.902;9.204;2023-11-18T07:48:21;5.30;99.90
7143;DHT22;3613;48.902;9.204;2023-11-18T07:50:47;5.30;99.90
7143;DHT22;3613;48.902;9.204;2023-11-18T07:53:13;5.40;99.90
7143;DHT22;3613;48.902;9.204;2023-11-18T07:55:39;5.50;99.90
7143;DHT22;3613;48.902;9.204;2023-11-18T07:58:09;5.50;99.90
7143;DHT22;3613;48.902;9.204;2023-11-18T08:00:41;5.70;99.90
7143;DHT22;3613;48.902;9.204;2023-11-18T08:03:08;5.90;99.90
7143;DHT22;3613;48.902;9.204;2023-11-18T08:05:43;5.90;99.90
7143;DHT22;3613;48.902;9.204;2023-11-18T08:08:12;6.00;99.90
7143;DHT22;3613;48.902;9.204;2023-11-18T08:10:39;6.10;99.90
7143;DHT22;3613;48.902;9.204;2023-11-18T08:13:05;6.20;99.90
7143;DHT22;3613;48.902;9.204;2023-11-18T08:15:39;6.40;99.90
7143;DHT22;3613;48.902;9.204;2023-11-18T08:18:05;6.10;99.90
7143;DHT22;3613;48.902;9.204;2023-11-18T08:20:31;6.00;99.90
7143;DHT22;3613;48.902;9.204;2023-11-18T08:23:00;6.10;99.90
7143;DHT22;3613;48.902;9.204;2023-11-18T08:25:25;6.20;99.90
7143;DHT22;3613;48.902;9.204;2023-11-18T08:27:51;6.40;99.90
7143;DHT22;3613;48.902;9.204;2023-11-18T08:30:17;6.20;99.90
7143;DHT22;3613;48.902;9.204;2023-11-18T08:32:44;6.50;99.90
7143;DHT22;3613;48.902;9.204;2023-11-18T08:35:11;6.60;99.90
7143;DHT22;3613;48.902;9.204;2023-11-18T08:37:40;6.70;92.40
7143;DHT22;3613;48.902;9.204;2023-11-18T08:40:08;6.60;80.10
7143;DHT22;3613;48.902;9.204;2023-11-18T08:42:53;6.60;94.30
7143;DHT22;3613;48.902;9.204;2023-11-18T08:45:23;6.80;99.90
7143;DHT22;3613;48.902;9.204;2023-11-18T08:47:53;6.80;85.20
7143;DHT22;3613;48.902;9.204;2023-11-18T08:50:19;7.00;99.90
7143;DHT22;3613;48.902;9.204;2023-11-18T08:52:45;7.00;19.80
7143;DHT22;3613;48.902;9.204;2023-11-18T08:55:14;7.10;60.50
7143;DHT22;3613;48.902;9.204;2023-11-18T08:57:47;7.20;97.50
7143;DHT22;3613;48.902;9.204;2023-11-18T09:00:30;7.40;67.20
7143;DHT22;3613;48.902;9.204;2023-11-18T09:03:14;7.50;2.90
7143;DHT22;3613;48.902;9.204;2023-11-18T09:05:49;7.50;1.00
7143;DHT22;3613;48.902;9.204;2023-11-18T09:08:31;7.50;1.00
7143;DHT22;3613;48.902;9.204;2023-11-18T09:11:13;7.60;1.00
7143;DHT22;3613;48.902;9.204;2023-11-18T09:13:46;7.70;1.00
7143;DHT22;3613;48.902;9.204;2023-11-18T09:16:19;7.90;1.00
7143;DHT22;3613;48.902;9.204;2023-11-18T09:18:48;7.90;1.00
7143;DHT22;3613;48.902;9.204;2023-11-18T09:21:17;8.30;1.00
7143;DHT22;3613;48.902;9.204;2023-11-18T09:23:49;8.60;1.00
7143;DHT22;3613;48.902;9.204;2023-11-18T09:26:14;8.70;1.00
7143;DHT22;3613;48.902;9.204;2023-11-18T09:28:42;8.90;1.00
7143;DHT22;3613;48.902;9.204;2023-11-18T09:31:10;9.20;99.90
7143;DHT22;3613;48.902;9.204;2023-11-18T09:33:38;9.40;99.90
7143;DHT22;3613;48.902;9.204;2023-11-18T09:36:10;9.40;99.90
7143;DHT22;3613;48.902;9.204;2023-11-18T09:38:40;9.20;99.90
7143;DHT22;3613;48.902;9.204;2023-11-18T09:41:09;9.30;99.90
7143;DHT22;3613;48.902;9.204;2023-11-18T09:43:39;9.40;99.90
7143;DHT22;3613;48.902;9.204;2023-11-18T09:46:12;9.40;1.00
7143;DHT22;3613;48.902;9.204;2023-11-18T09:48:49;9.20;99.90
7143;DHT22;3613;48.902;9.204;2023-11-18T09:51:26;9.40;99.90
7143;DHT22;3613;48.902;9.204;2023-11-18T09:54:05;11.40;99.90
7143;DHT22;3613;48.902;9.204;2023-11-18T09:56:43;9.80;99.90
7143;DHT22;3613;48.902;9.204;2023-11-18T09:59:32;10.00;1.00
7143;DHT22;3613;48.902;9.204;2023-11-18T10:02:03;10.20;1.00
7143;DHT22;3613;48.902;9.204;2023-11-18T10:04:32;10.30;99.90
7143;DHT22;3613;48.902;9.204;2023-11-18T10:07:01;10.30;1.00
7143;DHT22;3613;48.902;9.204;2023-11-18T10:09:28;10.40;35.70
7143;DHT22;3613;48.902;9.204;2023-11-18T10:11:54;10.40;4.30
7143;DHT22;3613;48.902;9.204;2023-11-18T10:14:28;10.20;99.90
7143;DHT22;3613;48.902;9.204;2023-11-18T10:16:57;10.20;99.90
7143;DHT22;3613;48.902;9.204;2023-11-18T10:19:24;10.00;1.00
7143;DHT22;3613;48.902;9.204;2023-11-18T10:21:51;9.80;1.00
7143;DHT22;3613;48.902;9.204;2023-11-18T10:24:17;9.60;99.90
7143;DHT22;3613;48.902;9.204;2023-11-18T10:26:53;9.70;99.90
7143;DHT22;3613;48.902;9.204;2023-11-18T10:29:22;9.80;1.00
7143;DHT22;3613;48.902;9.204;2023-11-18T10:32:08;10.00;1.00
7143;DHT22;3613;48.902;9.204;2023-11-18T10:34:35;9.90;1.00
7143;DHT22;3613;48.902;9.204;2023-11-18T10:37:02;10.00;99.90
7143;DHT22;3613;48.902;9.204;2023-11-18T10:39:34;9.50;99.90
7143;DHT22;3613;48.902;9.204;2023-11-18T10:42:01;9.40;1.00
7143;DHT22;3613;48.902;9.204;2023-11-18T10:44:27;9.40;1.00
7143;DHT22;3613;48.902;9.204;2023-11-18T10:46:53;9.30;1.00
7143;DHT22;3613;48.902;9.204;2023-11-18T10:49:27;10.60;91.40
7143;DHT22;3613;48.902;9.204;2023-11-18T10:51:53;9.70;1.00
7143;DHT22;3613;48.902;9.204;2023-11-18T10:54:21;9.80;1.00
7143;DHT22;3613;48.902;9.204;2023-11-18T10:56:48;9.80;99.90
7143;DHT22;3613;48.902;9.204;2023-11-18T10:59:14;9.70;99.90
7143;DHT22;3613;48.902;9.204;2023-11-18T11:01:44;9.60;1.00
7143;DHT22;3613;48.902;9.204;2023-11-18T11:04:15;9.70;1.00
7143;DHT22;3613;48.902;9.204;2023-11-18T11:06:50;9.70;99.90
7143;DHT22;3613;48.902;9.204;2023-11-18T11:14:22;9.40;1.00
7143;DHT22;3613;48.902;9.204;2023-11-18T11:16:55;9.60;1.00
7143;DHT22;3613;48.902;9.204;2023-11-18T11:19:34;9.60;99.90
7143;DHT22;3613;48.902;9.204;2023-11-18T11:22:10;9.70;1.00
7143;DHT22;3613;48.902;9.204;2023-11-18T11:25:14;9.70;99.90
7143;DHT22;3613;48.902;9.204;2023-11-18T11:27:56;9.80;1.00
7143;DHT22;3613;48.902;9.204;2023-11-18T11:30:29;9.80;1.00
7143;DHT22;3613;48.902;9.204;2023-11-18T11:33:13;9.90;99.90
7143;DHT22;3613;48.902;9.204;2023-11-18T11:35:43;9.90;1.00
7143;DHT22;3613;48.902;9.204;2023-11-18T11:38:15;9.90;11.50
7143;DHT22;3613;48.902;9.204;2023-11-18T11:40:42;10.20;99.90
7143;DHT22;3613;48.902;9.204;2023-11-18T11:43:10;9.90;1.00
7143;DHT22;3613;48.902;9.204;2023-11-18T11:45:52;9.80;1.00
7143;DHT22;3613;48.902;9.204;2023-11-18T11:48:20;9.70;1.00
7143;DHT22;3613;48.902;9.204;2023-11-18T11:53:35;9.70;1.00
7143;DHT22;3613;48.902;9.204;2023-11-18T11:56:05;9.70;1.00
7143;DHT22;3613;48.902;9.204;2023-11-18T11:58:35;9.70;1.00
7143;DHT22;3613;48.902;9.204;2023-11-18T12:01:32;9.60;1.00
7143;DHT22;3613;48.902;9.204;2023-11-18T12:04:03;9.60;1.00
7143;DHT22;3613;48.902;9.204;2023-11-18T12:06:41;9.60;99.90
7143;DHT22;3613;48.902;9.204;2023-11-18T12:09:08;9.60;34.50
7143;DHT22;3613;48.902;9.204;2023-11-18T12:11:39;9.70;91.10
7143;DHT22;3613;48.902;9.204;2023-11-18T12:14:11;9.70;1.00
7143;DHT22;3613;48.902;9.204;2023-11-18T12:16:58;9.70;3.10
7143;DHT22;3613;48.902;9.204;2023-11-18T12:19:32;9.60;1.00
7143;DHT22;3613;48.902;9.204;2023-11-18T12:22:15;9.50;1.00
7143;DHT22;3613;48.902;9.204;2023-11-18T12:33:05;9.50;1.00
7143;DHT22;3613;48.902;9.204;2023-11-18T12:41:38;9.40;1.00
7143;DHT22;3613;48.902;9.204;2023-11-18T12:44:30;9.30;1.00
7143;DHT22;3613;48.902;9.204;2023-11-18T12:47:01;9.30;1.00
7143;DHT22;3613;48.902;9.204;2023-11-18T12:49:48;9.30;1.00
7143;DHT22;3613;48.902;9.204;2023-11-18T12:52:22;9.30;1.00
7143;DHT22;3613;48.902;9.204;2023-11-18T12:54:49;9.30;1.00
7143;DHT22;3613;48.902;9.204;2023-11-18T12:57:27;9.30;1.00
7143;DHT22;3613;48.902;9.204;2023-11-18T12:59:57;9.40;1.00
7143;DHT22;3613;48.902;9.204;2023-11-18T13:02:25;9.20;99.90
7143;DHT22;3613;48.902;9.204;2023-11-18T13:04:50;9.10;1.00
7143;DHT22;3613;48.902;9.204;2023-11-18T13:07:19;9.10;1.00
7143;DHT22;3613;48.902;9.204;2023-11-18T13:09:47;9.20;92.80
7143;DHT22;3613;48.902;9.204;2023-11-18T13:12:13;9.10;1.00
7143;DHT22;3613;48.902;9.204;2023-11-18T13:14:46;9.10;1.00
7143;DHT22;3613;48.902;9.204;2023-11-18T13:17:14;9.10;1.00
7143;DHT22;3613;48.902;9.204;2023-11-18T13:19:41;9.10;17.60
7143;DHT22;3613;48.902;9.204;2023-11-18T13:22:09;9.10;1.00
7143;DHT22;3613;48.902;9.204;2023-11-18T13:24:38;9.10;1.00
7143;DHT22;3613;48.902;9.204;2023-11-18T13:27:09;9.10;1.00
7143;DHT22;3613;48.902;9.204;2023-11-18T13:29:36;9.10;1.00
7143;DHT22;3613;48.902;9.204;2023-11-18T13:32:05;9.10;1.00
7143;DHT22;3613;48.902;9.204;2023-11-18T13:34:38;9.00;99.90
7143;DHT22;3613;48.902;9.204;2023-11-18T13:37:08;9.10;99.90
7143;DHT22;3613;48.902;9.204;2023-11-18T13:39:36;9.10;85.00
7143;DHT22;3613;48.902;9.204;2023-11-18T13:42:26;9.10;1.00
7143;DHT22;3613;48.902;9.204;2023-11-18T13:44:56;9.10;99.90
7143;DHT22;3613;48.902;9.204;2023-11-18T13:47:27;9.00;1.00
7143;DHT22;3613;48.902;9.204;2023-11-18T13:49:59;9.00;99.90
7143;DHT22;3613;48.902;9.204;2023-11-18T13:52:29;9.00;28.50
7143;DHT22;3613;48.902;9.204;2023-11-18T13:54:56;9.00;1.00
7143;DHT22;3613;48.902;9.204;2023-11-18T13:57:23;9.00;1.00
7143;DHT22;3613;48.902;9.204;2023-11-18T13:59:52;9.10;1.00
7143;DHT22;3613;48.902;9.204;2023-11-18T14:02:20;9.10;1.00
7143;DHT22;3613;48.902;9.204;2023-11-18T14:04:50;9.10;1.00
7143;DHT22;3613;48.902;9.204;2023-11-18T14:07:15;9.10;1.00
7143;DHT22;3613;48.902;9.204;2023-11-18T14:09:44;9.10;1.00
7143;DHT22;3613;48.902;9.204;2023-11-18T14:12:12;9.10;79.00
7143;DHT22;3613;48.902;9.204;2023-11-18T14:14:41;9.20;99.90
7143;DHT22;3613;48.902;9.204;2023-11-18T14:17:07;9.10;1.00
7143;DHT22;3613;48.902;9.204;2023-11-18T14:19:35;9.10;1.00
7143;DHT22;3613;48.902;9.204;2023-11-18T14:22:02;9.10;1.00
7143;DHT22;3613;48.902;9.204;2023-11-18T14:24:34;9.10;99.90
7143;DHT22;3613;48.902;9.204;2023-11-18T14:27:00;9.00;99.90
7143;DHT22;3613;48.902;9.204;2023-11-18T14:29:26;8.90;99.90
7143;DHT22;3613;48.902;9.204;2023-11-18T14:31:55;8.90;99.90
7143;DHT22;3613;48.902;9.204;2023-11-18T14:34:21;8.80;1.00
7143;DHT22;3613;48.902;9.204;2023-11-18T14:36:46;8.80;99.90
7143;DHT22;3613;48.902;9.204;2023-11-18T14:39:12;8.80;1.00
7143;DHT22;3613;48.902;9.204;2023-11-18T14:41:45;8.70;1.00
7143;DHT22;3613;48.902;9.204;2023-11-18T14:44:14;8.70;1.00
7143;DHT22;3613;48.902;9.204;2023-11-18T14:46:39;8.70;1.00
7143;DHT22;3613;48.902;9.204;2023-11-18T14:49:09;8.70;1.00
7143;DHT22;3613;48.902;9.204;2023-11-18T14:51:35;8.60;1.00
7143;DHT22;3613;48.902;9.204;2023-11-18T14:54:01;8.60;1.00
7143;DHT22;3613;48.902;9.204;2023-11-18T14:56:26;8.60;64.10
7143;DHT22;3613;48.902;9.204;2023-11-18T14:58:55;8.70;42.00
7143;DHT22;3613;48.902;9.204;2023-11-18T15:01:20;8.50;99.90
7143;DHT22;3613;48.902;9.204;2023-11-18T15:03:46;8.50;99.90
7143;DHT22;3613;48.902;9.204;2023-11-18T15:06:13;8.50;99.90
7143;DHT22;3613;48.902;9.204;2023-11-18T15:08:39;8.50;1.00
7143;DHT22;3613;48.902;9.204;2023-11-18T15:11:07;8.50;1.00
7143;DHT22;3613;48.902;9.204;2023-11-18T15:13:35;8.40;1.00
7143;DHT22;3613;48.902;9.204;2023-11-18T15:16:03;8.50;1.00
7143;DHT22;3613;48.902;9.204;2023-11-18T15:18:29;8.40;1.00
7143;DHT22;3613;48.902;9.204;2023-11-18T15:20:55;8.40;1.00
7143;DHT22;3613;48.902;9.204;2023-11-18T15:23:22;8.50;1.00
7143;DHT22;3613;48.902;9.204;2023-11-18T15:25:47;8.40;1.00
7143;DHT22;3613;48.902;9.204;2023-11-18T15:28:15;8.40;1.00
7143;DHT22;3613;48.902;9.204;2023-11-18T15:30:42;8.40;1.00
7143;DHT22;3613;48.902;9.204;2023-11-18T15:33:10;8.40;1.00
7143;DHT22;3613;48.902;9.204;2023-11-18T15:35:39;8.40;1.00
7143;DHT22;3613;48.902;9.204;2023-11-18T15:38:07;8.40;1.00
7143;DHT22;3613;48.902;9.204;2023-11-18T15:40:37;8.30;1.00
7143;DHT22;3613;48.902;9.204;2023-11-18T15:43:05;8.30;1.00
7143;DHT22;3613;48.902;9.204;2023-11-18T15:45:31;8.30;1.00
7143;DHT22;3613;48.902;9.204;2023-11-18T15:48:00;8.30;1.00
7143;DHT22;3613;48.902;9.204;2023-11-18T15:50:29;8.30;1.00
7143;DHT22;3613;48.902;9.204;2023-11-18T15:52:55;8.20;1.00
7143;DHT22;3613;48.902;9.204;2023-11-18T15:55:22;8.30;1.00
7143;DHT22;3613;48.902;9.204;2023-11-18T15:57:51;8.20;1.00
7143;DHT22;3613;48.902;9.204;2023-11-18T16:00:32;8.20;1.00
7143;DHT22;3613;48.902;9.204;2023-11-18T16:03:01;8.20;1.00
7143;DHT22;3613;48.902;9.204;2023-11-18T16:05:30;8.20;1.00
7143;DHT22;3613;48.902;9.204;2023-11-18T16:07:58;8.30;1.00
7143;DHT22;3613;48.902;9.204;2023-11-18T16:10:25;8.10;1.00
7143;DHT22;3613;48.902;9.204;2023-11-18T16:12:55;8.20;1.00
7143;DHT22;3613;48.902;9.204;2023-11-18T16:15:22;8.10;1.00
7143;DHT22;3613;48.902;9.204;2023-11-18T16:17:49;8.00;1.00
7143;DHT22;3613;48.902;9.204;2023-11-18T16:20:21;8.70;1.00
7143;DHT22;3613;48.902;9.204;2023-11-18T16:22:53;7.90;1.00
7143;DHT22;3613;48.902;9.204;2023-11-18T16:25:24;7.90;1.00
7143;DHT22;3613;48.902;9.204;2023-11-18T16:27:54;7.90;1.00
7143;DHT22;3613;48.902;9.204;2023-11-18T16:30:21;7.90;1.00
7143;DHT22;3613;48.902;9.204;2023-11-18T16:32:51;7.90;1.00
7143;DHT22;3613;48.902;9.204;2023-11-18T16:35:17;7.80;1.00
7143;DHT22;3613;48.902;9.204;2023-11-18T16:37:48;7.90;1.00
7143;DHT22;3613;48.902;9.204;2023-11-18T16:40:15;7.90;1.00
7143;DHT22;3613;48.902;9.204;2023-11-18T16:42:45;7.90;1.00
7143;DHT22;3613;48.902;9.204;2023-11-18T16:45:12;7.90;1.00
7143;DHT22;3613;48.902;9.204;2023-11-18T16:47:38;7.90;1.00
7143;DHT22;3613;48.902;9.204;2023-11-18T16:50:08;7.90;1.00
7143;DHT22;3613;48.902;9.204;2023-11-18T16:52:35;7.90;1.00
7143;DHT22;3613;48.902;9.204;2023-11-18T16:55:06;8.00;1.00
7143;DHT22;3613;48.902;9.204;2023-11-18T16:57:34;8.00;99.90
7143;DHT22;3613;48.902;9.204;2023-11-18T17:00:03;8.00;99.90